createdAt,value
2018-11-21T00:04:35.902Z,79.50
2018-11-21T00:09:51.062Z,80.00
2018-11-21T00:15:06.247Z,79.60
2018-11-21T00:20:21.097Z,79.10
2018-11-21T00:25:35.747Z,79.10
2018-11-21T00:30:50.958Z,79.10
2018-11-21T00:36:05.666Z,78.10
2018-11-21T00:41:20.335Z,78.20
2018-11-21T00:46:35.365Z,78.90
2018-11-21T00:51:50.419Z,78.90
2018-11-21T00:57:04.974Z,79.10
2018-11-21T01:02:20.128Z,79.60
2018-11-21T01:07:35.535Z,79.60
2018-11-21T01:12:50.615Z,80.20
2018-11-21T01:18:05.481Z,80.50
2018-11-21T01:23:20.616Z,81.30
2018-11-21T01:28:35.762Z,82.90
2018-11-21T01:33:50.850Z,82.60
2018-11-21T01:39:05.559Z,83.00
2018-11-21T01:44:20.133Z,83.20
2018-11-21T01:49:32.785Z,83.40
2018-11-21T01:54:54.325Z,83.90
2018-11-21T02:00:09.675Z,85.10
2018-11-21T02:05:24.949Z,85.50
2018-11-21T02:10:40.186Z,86.30
2018-11-21T02:15:54.669Z,87.10
2018-11-21T02:21:09.597Z,87.70
2018-11-21T02:26:24.877Z,87.80
2018-11-21T02:31:40.086Z,87.70
2018-11-21T02:36:54.796Z,88.00
2018-11-21T02:42:09.307Z,88.90
2018-11-21T02:47:24.349Z,89.40
2018-11-21T02:52:38.763Z,90.10
2018-11-21T02:57:53.603Z,90.70
2018-11-21T03:03:08.379Z,90.90
2018-11-21T03:08:22.742Z,90.60
2018-11-21T03:13:37.089Z,89.80
2018-11-21T03:18:52.206Z,88.90
2018-11-21T03:24:07.631Z,89.20
2018-11-21T03:29:23.042Z,88.30
2018-11-21T03:34:38.176Z,87.50
2018-11-21T03:39:52.981Z,89.30
2018-11-21T03:45:11.119Z,89.40
2018-11-21T03:50:25.987Z,90.40
2018-11-21T03:55:41.277Z,91.50
2018-11-21T04:00:56.233Z,92.90
2018-11-21T04:06:11.234Z,92.70
2018-11-21T04:11:25.593Z,92.00
2018-11-21T04:16:40.721Z,93.30
2018-11-21T04:21:56.018Z,93.70
2018-11-21T04:27:10.893Z,94.40
2018-11-21T04:32:26.044Z,93.90
2018-11-21T04:37:40.936Z,92.00
2018-11-21T04:42:56.118Z,91.00
2018-11-21T04:48:11.332Z,89.20
2018-11-21T04:53:26.120Z,90.90
2018-11-21T04:58:41.412Z,91.80
2018-11-21T05:03:56.393Z,92.40
2018-11-21T05:09:11.850Z,92.80
2018-11-21T05:14:13.705Z,92.10
2018-11-21T05:19:15.817Z,92.20
2018-11-21T05:24:17.681Z,93.10
2018-11-21T05:29:19.549Z,92.80
2018-11-21T05:34:21.411Z,93.60
2018-11-21T05:39:23.553Z,94.80
2018-11-21T05:44:31.230Z,93.80
2018-11-21T05:49:27.545Z,93.90
2018-11-21T05:54:29.488Z,94.40
2018-11-21T05:59:31.393Z,94.70
2018-11-21T06:04:33.314Z,94.50
2018-11-21T06:09:35.212Z,93.60
2018-11-21T06:14:37.109Z,91.90
2018-11-21T06:19:38.994Z,90.30
2018-11-21T06:24:41.226Z,88.90
2018-11-21T06:29:43.102Z,89.10
2018-11-21T06:34:45.024Z,87.10
2018-11-21T06:39:46.909Z,87.70
2018-11-21T06:44:48.796Z,87.70
2018-11-21T06:49:50.681Z,86.80
2018-11-21T06:54:52.602Z,86.90
2018-11-21T06:59:54.566Z,86.00
2018-11-21T07:04:56.433Z,85.70
2018-11-21T07:09:58.553Z,85.90
2018-11-21T07:15:00.455Z,84.90
2018-11-21T07:20:02.607Z,84.80
2018-11-21T07:25:16.287Z,83.60
2018-11-21T07:30:18.513Z,83.20
2018-11-21T07:35:20.389Z,82.70
2018-11-21T07:40:22.273Z,83.30
2018-11-21T07:45:24.166Z,82.60
2018-11-21T07:50:26.074Z,82.40
2018-11-21T07:55:27.986Z,80.90
2018-11-21T08:01:10.528Z,80.10
2018-11-21T08:06:32.056Z,80.60
2018-11-21T08:11:46.079Z,80.60
2018-11-21T08:17:13.161Z,78.90
2018-11-21T08:22:27.753Z,78.50
2018-11-21T08:27:52.080Z,77.80
2018-11-21T08:32:53.956Z,78.00
2018-11-21T08:37:55.841Z,77.90
2018-11-21T08:42:57.721Z,76.60
2018-11-21T08:47:59.608Z,75.90
2018-11-21T08:53:02.073Z,75.00
2018-11-21T08:58:04.351Z,69.50
2018-11-21T09:03:06.542Z,68.70
2018-11-21T09:08:08.421Z,69.00
2018-11-21T09:13:10.306Z,66.20
2018-11-21T09:18:12.264Z,64.10
2018-11-21T09:23:14.140Z,64.30
2018-11-21T09:28:16.058Z,61.10
2018-11-21T09:33:17.943Z,63.90
2018-11-21T09:38:20.108Z,62.40
2018-11-21T09:43:21.985Z,62.50
2018-11-21T09:48:23.867Z,61.10
2018-11-21T09:53:25.972Z,56.40
2018-11-21T09:58:27.852Z,56.00
2018-11-21T10:03:31.340Z,55.60
2018-11-21T10:08:37.334Z,59.80
2018-11-21T10:13:39.192Z,64.30
2018-11-21T10:18:42.542Z,65.70
2018-11-21T10:23:45.211Z,67.40
2018-11-21T10:28:46.922Z,68.10
2018-11-21T10:33:48.784Z,68.30
2018-11-21T10:38:50.641Z,68.30
2018-11-21T10:43:52.528Z,70.00
2018-11-21T10:48:54.398Z,69.60
2018-11-21T10:53:56.260Z,69.10
2018-11-21T10:58:58.148Z,70.20
2018-11-21T11:04:25.533Z,70.00
2018-11-21T11:09:45.450Z,69.30
2018-11-21T11:15:05.695Z,67.90
2018-11-21T11:20:26.724Z,68.00
2018-11-21T11:25:54.989Z,68.10
2018-11-21T11:31:12.989Z,68.50
2018-11-21T11:36:41.856Z,67.90
2018-11-21T11:42:07.677Z,69.30
2018-11-21T11:47:41.032Z,68.70
2018-11-21T11:53:05.138Z,68.20
2018-11-21T11:58:25.149Z,68.10
2018-11-21T12:03:40.735Z,69.30
2018-11-21T12:09:02.266Z,68.40
2018-11-21T12:14:19.366Z,67.40
2018-11-21T12:19:35.590Z,66.80
2018-11-21T12:24:55.428Z,67.50
2018-11-21T12:30:16.295Z,66.80
2018-11-21T12:35:28.500Z,66.30
2018-11-21T12:40:50.013Z,66.00
2018-11-21T12:46:14.296Z,66.20
2018-11-21T12:51:35.806Z,66.40
2018-11-21T12:56:57.331Z,66.10
2018-11-21T13:02:17.343Z,65.60
2018-11-21T13:07:50.688Z,65.60
2018-11-21T13:13:10.678Z,64.90
2018-11-21T13:18:30.848Z,64.30
2018-11-21T13:24:01.153Z,64.00
2018-11-21T13:29:22.720Z,64.50
2018-11-21T13:34:44.253Z,64.80
2018-11-21T13:40:00.735Z,64.80
2018-11-21T13:45:31.005Z,64.20
2018-11-21T13:50:57.626Z,64.20
2018-11-21T13:55:59.483Z,64.30
2018-11-21T14:01:01.625Z,64.20
2018-11-21T14:06:04.317Z,64.50
2018-11-21T14:11:06.191Z,64.20
2018-11-21T14:16:08.052Z,64.30
2018-11-21T14:21:09.940Z,64.70
2018-11-21T14:26:11.812Z,64.70
2018-11-21T14:31:13.679Z,65.00
2018-11-21T14:36:15.551Z,65.90
2018-11-21T14:41:17.427Z,66.80
2018-11-21T14:46:19.282Z,66.90
2018-11-21T14:51:21.221Z,66.50
2018-11-21T14:56:23.082Z,67.10
2018-11-21T15:01:24.940Z,66.50
2018-11-21T15:06:26.864Z,66.20
2018-11-21T15:11:28.697Z,66.40
2018-11-21T15:16:30.560Z,66.70
2018-11-21T15:21:32.416Z,66.60
2018-11-21T15:26:34.551Z,67.60
2018-11-21T15:31:36.406Z,67.60
2018-11-21T15:36:38.300Z,67.90
2018-11-21T15:41:40.559Z,67.40
2018-11-21T15:46:45.854Z,68.10
2018-11-21T15:51:44.508Z,68.10
2018-11-21T15:56:46.377Z,67.90
2018-11-21T16:01:48.253Z,68.30
2018-11-21T16:06:50.369Z,67.60
2018-11-21T16:11:52.239Z,68.10
2018-11-21T16:16:54.121Z,67.90
2018-11-21T16:21:56.210Z,67.10
2018-11-21T16:26:58.093Z,67.40
2018-11-21T16:32:00.000Z,68.00
2018-11-21T16:37:02.143Z,67.70
2018-11-21T16:42:04.255Z,67.50
2018-11-21T16:47:06.140Z,67.50
2018-11-21T16:52:08.013Z,67.20
2018-11-21T16:57:09.887Z,67.50
2018-11-21T17:02:11.771Z,67.10
2018-11-21T17:07:13.705Z,67.80
2018-11-21T17:12:15.571Z,67.20
2018-11-21T17:17:17.455Z,67.20
2018-11-21T17:22:19.337Z,67.00
2018-11-21T17:27:21.248Z,66.90
2018-11-21T17:32:23.114Z,67.00
2018-11-21T17:37:25.004Z,66.90
2018-11-21T17:42:27.592Z,68.00
2018-11-21T17:47:29.475Z,68.80
2018-11-21T17:52:31.356Z,69.30
2018-11-21T17:57:33.515Z,69.10
2018-11-21T18:02:35.390Z,69.70
2018-11-21T18:07:37.483Z,70.50
2018-11-21T18:12:39.683Z,71.30
2018-11-21T18:17:42.448Z,70.70
2018-11-21T18:22:45.174Z,70.80
2018-11-21T18:27:47.046Z,71.60
2018-11-21T18:32:49.631Z,71.20
2018-11-21T18:37:51.719Z,70.60
2018-11-21T18:42:53.850Z,70.80
2018-11-21T18:47:55.730Z,71.70
2018-11-21T18:52:58.871Z,72.20
2018-11-21T18:58:47.978Z,72.30
2018-11-21T19:03:49.844Z,72.20
2018-11-21T19:08:51.729Z,71.80
2018-11-21T19:13:53.689Z,71.90
2018-11-21T19:18:55.632Z,72.00
2018-11-21T19:23:57.510Z,71.50
2018-11-21T19:28:59.404Z,71.60
2018-11-21T19:34:01.274Z,72.10
2018-11-21T19:39:06.422Z,71.80
2018-11-21T19:44:08.299Z,72.10
2018-11-21T19:49:10.185Z,71.50
2018-11-21T19:54:12.060Z,71.90
2018-11-21T19:59:13.938Z,71.60
2018-11-21T20:04:15.818Z,71.10
2018-11-21T20:09:17.726Z,70.80
2018-11-21T20:14:19.616Z,70.70
2018-11-21T20:19:21.752Z,70.60
2018-11-21T20:24:23.681Z,70.70
2018-11-21T20:29:25.825Z,70.50
2018-11-21T20:34:27.701Z,70.70
